< < Back
Terminal Aerodrome Forecast


Current Version              Previous Versions:   1  2  3  4  5  6  7  8  9  

Terminal Aerodrome Forecast

223
FTUS42 KTAE 301200 AAA
TAFDHN
TAF AMD
KDHN 301224Z 3012/3112 33006KT P6SM FEW060 SCT250=

Latest METAR

512
SAUS70 KWBC 301500 RRJ
MTRDHN
METAR KDHN 301453Z 00000KT 10SM CLR 24/15 A3009 RMK AO2 SLP184 T02390150
51008 $


USA.gov is the U.S. government's official web portal to all federal, state and local government web resources and services.